Time;durP1;ratioP1;P1;durP2;ratioP2;P2;SDS_P1;SDS_P2;PMS_P1;PMS_P2;Temp;Humidity;BMP_temperature;BMP_pressure;BME280_temperature;BME280_humidity;BME280_pressure;Samples;Min_cycle;Max_cycle;Signal;HPM_P1;HPM_P2
2022/08/10 00:02:16;;;;;;;1.77;1.10;;;24.70;99.90;;;;;;4160084;28;20200;-73
2022/08/10 00:04:19;;;;;;;2.35;0.80;;;24.70;99.90;;;;;;4163255;28;20262;-73
2022/08/10 00:06:22;;;;;;;1.23;1.00;;;24.70;99.90;;;;;;4163276;28;20209;-73
2022/08/10 00:08:25;;;;;;;1.10;1.00;;;24.70;99.90;;;;;;4163388;28;20212;-73
2022/08/10 00:10:28;;;;;;;2.03;0.85;;;24.70;99.90;;;;;;4162832;28;20216;-73
2022/08/10 00:12:31;;;;;;;1.58;0.90;;;24.60;99.90;;;;;;4162927;28;20609;-73
2022/08/10 00:14:33;;;;;;;1.17;1.00;;;24.70;99.90;;;;;;4163243;28;20606;-73
2022/08/10 00:16:35;;;;;;;1.40;0.80;;;24.60;99.90;;;;;;4149087;28;20299;-73
2022/08/10 00:18:38;;;;;;;1.30;0.90;;;24.70;99.90;;;;;;4158459;28;20213;-73
2022/08/10 00:20:40;;;;;;;1.45;0.70;;;24.60;99.90;;;;;;4161356;28;20217;-73
2022/08/10 00:22:42;;;;;;;1.88;1.00;;;24.60;99.90;;;;;;4158320;28;20220;-73
2022/08/10 00:24:45;;;;;;;1.35;0.98;;;24.60;99.90;;;;;;4162780;28;20266;-73
2022/08/10 00:26:48;;;;;;;1.27;1.00;;;24.60;99.90;;;;;;4163052;28;20213;-73
2022/08/10 00:28:51;;;;;;;1.25;0.90;;;24.60;99.90;;;;;;4157996;28;20278;-73
2022/08/10 00:30:53;;;;;;;1.88;1.10;;;24.60;99.90;;;;;;4163140;28;20259;-73
2022/08/10 00:32:55;;;;;;;1.42;0.75;;;24.60;99.90;;;;;;4162963;28;20220;-73
2022/08/10 00:34:58;;;;;;;2.40;0.90;;;24.60;99.90;;;;;;4160428;28;20278;-73
2022/08/10 00:37:00;;;;;;;1.10;1.00;;;24.60;99.90;;;;;;4162391;28;20310;-73
2022/08/10 00:39:03;;;;;;;0.93;0.80;;;24.60;99.90;;;;;;4162740;28;20228;-73
2022/08/10 00:41:05;;;;;;;2.80;0.93;;;24.60;99.90;;;;;;4162992;28;20216;-73
2022/08/10 00:43:09;;;;;;;1.02;0.93;;;24.60;99.90;;;;;;4162212;28;20220;-73
2022/08/10 00:45:11;;;;;;;1.20;1.08;;;24.60;99.90;;;;;;4161666;28;20236;-73
2022/08/10 00:47:14;;;;;;;0.98;0.88;;;24.50;99.90;;;;;;4162665;28;20267;-73
2022/08/10 00:49:16;;;;;;;1.10;0.80;;;24.60;99.90;;;;;;4161103;28;20209;-73
2022/08/10 00:51:19;;;;;;;3.30;1.05;;;24.60;99.90;;;;;;4162464;28;20217;-73
2022/08/10 00:53:21;;;;;;;1.10;0.95;;;24.50;99.90;;;;;;4160548;28;20694;-73
2022/08/10 00:55:23;;;;;;;1.85;0.90;;;24.50;99.90;;;;;;4153756;28;20217;-73
2022/08/10 00:57:26;;;;;;;1.23;1.10;;;24.50;99.90;;;;;;4159039;28;20750;-73
2022/08/10 00:59:31;;;;;;;1.00;0.90;;;24.60;99.90;;;;;;4162053;28;20212;-73
2022/08/10 01:01:33;;;;;;;1.38;1.00;;;24.50;99.90;;;;;;4161778;28;20217;-73
2022/08/10 01:03:35;;;;;;;1.50;1.17;;;24.50;99.90;;;;;;4162364;28;20220;-73
2022/08/10 01:05:46;;;;;;;0.95;0.77;;;24.50;99.90;;;;;;4155838;28;20355;-73
2022/08/10 01:08:02;;;;;;;1.20;1.00;;;24.50;99.90;;;;;;4162103;28;20212;-73
2022/08/10 01:10:15;;;;;;;2.72;1.10;;;24.50;99.90;;;;;;4161940;28;20289;-73
2022/08/10 01:12:28;;;;;;;3.13;1.00;;;24.50;99.90;;;;;;4162428;28;20213;-73
2022/08/10 01:14:37;;;;;;;1.27;1.10;;;24.50;99.90;;;;;;4161925;28;20262;-73
2022/08/10 01:16:47;;;;;;;1.77;1.20;;;24.50;99.90;;;;;;4157426;28;20711;-73
2022/08/10 01:18:56;;;;;;;1.05;0.80;;;24.50;99.90;;;;;;4161393;28;20266;-73
2022/08/10 01:21:24;;;;;;;1.83;0.98;;;24.50;99.90;;;;;;4162369;28;20656;-73
2022/08/10 01:24:02;;;;;;;1.38;0.80;;;24.50;99.90;;;;;;4158711;28;20213;-73
2022/08/10 01:26:30;;;;;;;0.80;0.80;;;24.50;99.90;;;;;;4157778;28;20224;-73
2022/08/10 01:28:45;;;;;;;2.30;1.05;;;24.50;99.90;;;;;;4161773;28;20296;-73
2022/08/10 01:30:53;;;;;;;1.58;1.05;;;24.40;99.90;;;;;;4162065;28;20350;-73
2022/08/10 01:33:03;;;;;;;1.88;1.02;;;24.50;99.90;;;;;;4162081;28;20262;-73
2022/08/10 01:35:13;;;;;;;1.35;1.02;;;24.40;99.90;;;;;;4161183;28;20680;-73
2022/08/10 01:37:18;;;;;;;1.30;0.90;;;24.40;99.90;;;;;;4161540;28;20286;-73
2022/08/10 01:39:24;;;;;;;0.70;0.70;;;24.40;99.90;;;;;;4161635;28;20294;-73
2022/08/10 01:41:29;;;;;;;1.20;0.93;;;24.40;99.90;;;;;;4161518;28;20212;-73
2022/08/10 01:43:34;;;;;;;1.30;0.90;;;24.40;99.90;;;;;;4161708;28;20216;-73
2022/08/10 01:45:41;;;;;;;1.58;0.82;;;24.40;99.90;;;;;;4161113;28;20286;-73
2022/08/10 01:50:12;;;;;;;1.50;1.00;;;24.40;99.90;;;;;;4158779;28;20208;-73
2022/08/10 01:52:18;;;;;;;1.02;0.90;;;24.40;99.90;;;;;;4160938;28;20216;-73
2022/08/10 01:54:24;;;;;;;1.40;0.90;;;24.40;99.90;;;;;;4161268;28;20598;-73
2022/08/10 01:56:30;;;;;;;0.93;0.93;;;24.40;99.90;;;;;;4158370;28;20216;-73
2022/08/10 01:58:35;;;;;;;1.00;0.90;;;24.40;99.90;;;;;;4161200;28;20337;-73
2022/08/10 02:00:41;;;;;;;1.60;1.13;;;24.40;99.90;;;;;;4161754;28;20200;-73
2022/08/10 02:02:46;;;;;;;0.90;0.80;;;24.40;99.90;;;;;;4155261;28;20358;-73
2022/08/10 02:04:51;;;;;;;2.22;0.93;;;24.40;99.90;;;;;;4159117;28;20212;-73
2022/08/10 02:06:55;;;;;;;1.73;1.00;;;24.40;99.90;;;;;;4162012;28;20267;-73
2022/08/10 02:09:01;;;;;;;1.75;1.10;;;24.40;99.90;;;;;;4161155;28;20607;-73
2022/08/10 02:11:04;;;;;;;1.10;0.90;;;24.30;99.90;;;;;;4161533;28;20216;-73
2022/08/10 02:13:08;;;;;;;0.90;0.73;;;24.40;99.90;;;;;;4161408;28;20271;-73
2022/08/10 02:15:14;;;;;;;1.02;0.80;;;24.30;99.90;;;;;;4161320;28;20270;-73
2022/08/10 02:17:20;;;;;;;1.08;0.98;;;24.30;99.90;;;;;;4160934;28;20224;-73
2022/08/10 02:19:26;;;;;;;1.40;0.85;;;24.40;99.90;;;;;;4161466;28;20228;-73
2022/08/10 02:21:29;;;;;;;1.60;1.00;;;24.30;99.90;;;;;;4158235;28;20277;-73
2022/08/10 02:23:35;;;;;;;2.30;1.13;;;24.30;99.90;;;;;;4161407;28;20217;-73
2022/08/10 02:25:39;;;;;;;2.15;1.10;;;24.30;99.90;;;;;;4161206;28;20216;-73
2022/08/10 02:27:43;;;;;;;1.02;0.93;;;24.30;99.90;;;;;;4161256;28;20216;-73
2022/08/10 02:29:46;;;;;;;1.95;1.30;;;24.30;99.90;;;;;;4161196;28;20294;-73
2022/08/10 02:31:49;;;;;;;1.98;0.95;;;24.30;99.90;;;;;;4160910;28;20296;-73
2022/08/10 02:33:55;;;;;;;1.00;0.90;;;24.30;99.90;;;;;;4161293;28;20639;-73
2022/08/10 02:36:01;;;;;;;1.15;0.90;;;24.30;99.90;;;;;;4160188;28;20216;-73
2022/08/10 02:38:07;;;;;;;1.30;1.20;;;24.30;99.90;;;;;;4161317;28;20252;-73
2022/08/10 02:40:10;;;;;;;1.58;0.90;;;24.30;99.90;;;;;;4161420;28;20247;-73
2022/08/10 02:42:21;;;;;;;1.85;1.00;;;24.30;99.90;;;;;;4161137;28;20274;-73
2022/08/10 02:44:28;;;;;;;1.75;1.00;;;24.30;99.90;;;;;;4160515;28;20236;-73
2022/08/10 02:46:40;;;;;;;1.73;0.88;;;24.30;99.90;;;;;;4161404;28;20649;-73
2022/08/10 02:48:45;;;;;;;2.45;1.15;;;24.20;99.90;;;;;;4160819;28;20278;-73
2022/08/10 02:50:56;;;;;;;1.02;0.90;;;24.20;99.90;;;;;;4161164;28;20249;-73
2022/08/10 02:53:05;;;;;;;1.50;1.13;;;24.20;99.90;;;;;;4161262;28;20220;-73
2022/08/10 02:55:14;;;;;;;1.10;0.98;;;24.20;99.90;;;;;;4161366;28;20212;-73
2022/08/10 02:57:20;;;;;;;0.80;0.80;;;24.20;99.90;;;;;;4161326;28;20212;-73
2022/08/10 02:59:29;;;;;;;2.50;1.20;;;24.20;99.90;;;;;;4161023;28;20237;-73
2022/08/10 03:01:36;;;;;;;1.25;1.08;;;24.20;99.90;;;;;;4160695;28;20216;-73
2022/08/10 03:03:44;;;;;;;1.55;0.93;;;24.20;99.90;;;;;;4160987;28;20230;-73
2022/08/10 03:05:49;;;;;;;1.30;1.20;;;24.20;99.90;;;;;;4161058;28;20238;-73
2022/08/10 03:07:55;;;;;;;3.67;1.40;;;24.20;99.90;;;;;;4162718;28;20312;-73
2022/08/10 03:10:01;;;;;;;1.27;0.95;;;24.20;99.90;;;;;;4164002;28;20282;-73
2022/08/10 03:12:06;;;;;;;1.20;1.00;;;24.20;99.90;;;;;;4163708;28;20675;-73
2022/08/10 03:14:10;;;;;;;1.30;1.00;;;24.20;99.90;;;;;;4163940;28;20270;-73
2022/08/10 03:16:14;;;;;;;1.05;1.00;;;24.20;99.90;;;;;;4163079;28;21012;-73
2022/08/10 03:18:18;;;;;;;1.27;1.15;;;24.20;99.90;;;;;;4164229;28;20692;-73
2022/08/10 03:20:21;;;;;;;1.17;1.00;;;24.20;99.90;;;;;;4164075;28;20300;-73
2022/08/10 03:22:25;;;;;;;1.48;0.88;;;24.20;99.90;;;;;;4163554;28;20212;-73
2022/08/10 03:24:29;;;;;;;1.55;0.90;;;24.20;99.90;;;;;;4163612;28;20319;-73
2022/08/10 03:26:34;;;;;;;2.10;1.20;;;24.20;99.90;;;;;;4163483;28;20660;-73
2022/08/10 03:28:37;;;;;;;1.23;1.00;;;24.20;99.90;;;;;;4163855;28;20254;-73
2022/08/10 03:30:40;;;;;;;3.00;1.25;;;24.20;99.90;;;;;;4163568;28;20212;-73
2022/08/10 03:32:43;;;;;;;1.10;1.00;;;24.20;99.90;;;;;;4163712;28;20221;-73
2022/08/10 03:34:46;;;;;;;1.10;1.00;;;24.10;99.90;;;;;;4163022;28;20212;-73
2022/08/10 03:36:49;;;;;;;1.13;1.02;;;24.10;99.90;;;;;;4164004;28;20217;-73
2022/08/10 03:38:52;;;;;;;1.00;0.90;;;24.10;99.90;;;;;;4163474;28;20236;-73
2022/08/10 03:40:57;;;;;;;1.10;1.00;;;24.10;99.90;;;;;;4163464;28;20225;-73
2022/08/10 03:43:03;;;;;;;1.02;0.93;;;24.10;99.90;;;;;;4162953;28;20262;-73
2022/08/10 03:45:09;;;;;;;2.35;1.00;;;24.20;99.90;;;;;;4162942;28;20236;-73
2022/08/10 03:47:13;;;;;;;1.83;1.02;;;24.10;99.90;;;;;;4162856;28;20224;-73
2022/08/10 03:49:17;;;;;;;1.63;1.08;;;24.10;99.90;;;;;;4163758;28;20247;-73
2022/08/10 03:51:20;;;;;;;1.55;0.93;;;24.10;99.90;;;;;;4162920;28;20620;-73
2022/08/10 03:53:23;;;;;;;1.20;0.90;;;24.10;99.90;;;;;;4162976;28;20274;-73
2022/08/10 03:55:26;;;;;;;1.00;0.88;;;24.10;99.90;;;;;;4163072;28;20212;-73
2022/08/10 03:57:29;;;;;;;1.52;0.98;;;24.10;99.90;;;;;;4163281;28;20251;-73
2022/08/10 03:59:35;;;;;;;1.30;1.10;;;24.10;99.90;;;;;;4163066;28;20290;-73
2022/08/10 04:01:37;;;;;;;0.85;0.85;;;24.10;99.90;;;;;;4162952;28;20221;-73
2022/08/10 04:03:39;;;;;;;2.03;1.00;;;24.10;99.90;;;;;;4163442;28;20267;-73
2022/08/10 04:05:42;;;;;;;1.38;1.05;;;24.00;99.90;;;;;;4163087;28;20216;-73
2022/08/10 04:07:44;;;;;;;2.45;1.00;;;24.10;99.90;;;;;;4162781;28;20258;-73
2022/08/10 04:09:47;;;;;;;1.27;1.00;;;24.10;99.90;;;;;;4162524;28;20216;-73
2022/08/10 04:11:50;;;;;;;1.95;1.02;;;24.10;99.90;;;;;;4163204;28;20270;-73
2022/08/10 04:13:52;;;;;;;1.10;0.90;;;24.10;99.90;;;;;;4157440;28;20782;-73
2022/08/10 04:15:55;;;;;;;1.30;1.10;;;24.10;99.90;;;;;;4162395;28;20212;-73
2022/08/10 04:17:58;;;;;;;1.10;0.90;;;24.10;99.90;;;;;;4162634;28;20216;-73
2022/08/10 04:20:01;;;;;;;1.00;1.00;;;24.10;99.90;;;;;;4162421;28;20236;-73
2022/08/10 04:22:11;;;;;;;1.65;1.02;;;24.10;99.90;;;;;;4163041;28;20270;-73
2022/08/10 04:24:18;;;;;;;1.42;1.00;;;24.10;99.90;;;;;;4162587;28;20227;-73
2022/08/10 04:26:21;;;;;;;1.10;1.00;;;24.10;99.90;;;;;;4163230;28;20219;-73
2022/08/10 04:28:25;;;;;;;1.95;0.90;;;24.10;99.90;;;;;;4162823;28;20217;-73
2022/08/10 04:30:29;;;;;;;3.25;1.10;;;24.10;99.90;;;;;;4163143;28;20563;-73
2022/08/10 04:32:34;;;;;;;2.55;1.10;;;24.00;99.90;;;;;;4162682;28;20217;-73
2022/08/10 04:34:37;;;;;;;2.63;1.10;;;24.00;99.90;;;;;;4162928;28;20217;-73
2022/08/10 04:36:41;;;;;;;1.55;1.05;;;24.00;99.90;;;;;;4162830;28;20212;-73
2022/08/10 04:38:45;;;;;;;1.52;1.00;;;24.00;99.90;;;;;;4162681;28;20653;-73
2022/08/10 04:40:47;;;;;;;1.10;0.90;;;24.00;99.90;;;;;;4154174;28;20258;-73
2022/08/10 04:42:50;;;;;;;2.65;1.00;;;24.00;99.90;;;;;;4162173;28;20216;-73
2022/08/10 04:44:52;;;;;;;1.20;1.00;;;24.00;99.90;;;;;;4162294;28;20232;-73
2022/08/10 04:46:54;;;;;;;1.10;1.00;;;24.10;99.90;;;;;;4162598;28;20639;-73
2022/08/10 04:48:58;;;;;;;1.30;1.13;;;24.00;99.90;;;;;;4162763;28;20205;-73
2022/08/10 04:51:00;;;;;;;1.50;1.40;;;24.00;99.90;;;;;;4162902;28;20216;-73
2022/08/10 04:53:03;;;;;;;1.30;0.98;;;24.10;99.90;;;;;;4162558;28;20723;-73
2022/08/10 04:55:06;;;;;;;1.58;1.35;;;24.00;99.90;;;;;;4162623;28;20617;-73
2022/08/10 04:57:08;;;;;;;1.63;1.08;;;24.00;99.90;;;;;;4162137;28;20640;-73
2022/08/10 04:59:12;;;;;;;1.98;0.98;;;24.00;99.90;;;;;;4161681;28;20282;-73
2022/08/10 05:01:14;;;;;;;2.75;1.13;;;24.00;99.90;;;;;;4162082;28;20274;-73
2022/08/10 05:03:17;;;;;;;4.25;0.95;;;24.00;99.90;;;;;;4162549;28;20282;-73
2022/08/10 05:05:20;;;;;;;1.25;1.00;;;24.00;99.90;;;;;;4162588;28;20212;-73
2022/08/10 05:07:23;;;;;;;1.73;1.30;;;24.00;99.90;;;;;;4162037;28;20293;-73
2022/08/10 05:09:25;;;;;;;2.72;0.90;;;24.00;99.90;;;;;;4161770;28;20209;-73
2022/08/10 05:11:27;;;;;;;1.20;1.10;;;24.00;99.90;;;;;;4162033;28;20263;-73
2022/08/10 05:13:30;;;;;;;1.23;1.13;;;24.00;99.90;;;;;;4161906;28;20221;-73
2022/08/10 05:15:32;;;;;;;2.65;1.20;;;24.00;99.90;;;;;;4161537;28;20216;-73
2022/08/10 05:17:35;;;;;;;1.73;1.30;;;24.00;99.90;;;;;;4162494;28;20216;-73
2022/08/10 05:19:37;;;;;;;1.42;1.10;;;24.00;99.90;;;;;;4161335;28;20244;-73
2022/08/10 05:21:41;;;;;;;1.40;1.08;;;24.00;99.90;;;;;;4161665;28;20286;-73
2022/08/10 05:23:43;;;;;;;1.92;1.10;;;23.90;99.90;;;;;;4161826;28;20209;-73
2022/08/10 05:25:45;;;;;;;2.10;1.27;;;24.00;99.90;;;;;;4161648;28;20266;-73
2022/08/10 05:27:48;;;;;;;1.35;1.15;;;24.00;99.90;;;;;;4161597;28;20216;-73
2022/08/10 05:29:50;;;;;;;1.23;1.00;;;24.00;99.90;;;;;;4162082;28;20255;-73
2022/08/10 05:31:53;;;;;;;2.25;1.20;;;24.00;99.90;;;;;;4161193;28;20688;-73
2022/08/10 05:33:56;;;;;;;0.95;0.95;;;24.00;99.90;;;;;;4161045;28;20295;-73
2022/08/10 05:35:59;;;;;;;1.23;1.00;;;24.00;99.90;;;;;;4161908;28;20216;-73
2022/08/10 05:38:04;;;;;;;1.95;1.23;;;24.00;99.90;;;;;;4161667;28;20274;-73
2022/08/10 05:40:07;;;;;;;2.15;1.23;;;24.00;99.90;;;;;;4161366;28;20252;-73
2022/08/10 05:42:46;;;;;;;2.40;1.20;;;24.00;99.90;;;;;;4161715;28;20224;-73
2022/08/10 05:44:49;;;;;;;1.33;1.10;;;24.00;99.90;;;;;;4161248;28;20231;-73
2022/08/10 05:46:51;;;;;;;1.15;1.05;;;24.00;99.90;;;;;;4161430;28;20212;-73
2022/08/10 05:48:54;;;;;;;1.92;1.20;;;24.00;99.90;;;;;;4161210;28;20286;-73
2022/08/10 05:50:56;;;;;;;1.52;0.85;;;24.00;99.90;;;;;;4161890;28;20247;-73
2022/08/10 05:52:59;;;;;;;2.65;1.10;;;24.00;99.90;;;;;;4156108;28;20224;-73
2022/08/10 05:55:03;;;;;;;1.70;1.20;;;23.90;99.90;;;;;;4161193;28;20216;-73
2022/08/10 05:57:06;;;;;;;2.17;1.10;;;23.90;99.90;;;;;;4161286;28;20259;-74
2022/08/10 05:59:08;;;;;;;1.15;1.05;;;23.90;99.90;;;;;;4160924;28;20212;-74
2022/08/10 06:01:14;;;;;;;1.77;1.02;;;23.90;99.90;;;;;;4161423;28;20216;-73
2022/08/10 06:03:20;;;;;;;2.00;1.30;;;23.90;99.90;;;;;;4156806;28;20217;-73
2022/08/10 06:05:25;;;;;;;2.63;0.95;;;23.90;99.90;;;;;;4161643;28;20660;-73
2022/08/10 06:07:29;;;;;;;1.20;1.10;;;23.90;99.90;;;;;;4161162;28;20216;-74
2022/08/10 06:09:33;;;;;;;1.83;1.30;;;23.90;99.90;;;;;;4161148;28;20246;-73
2022/08/10 06:11:38;;;;;;;1.30;1.20;;;23.90;99.90;;;;;;4161532;28;20286;-74
2022/08/10 06:16:06;;;;;;;1.38;1.00;;;23.90;99.90;;;;;;4161193;28;20598;-74
2022/08/10 06:18:09;;;;;;;1.25;1.13;;;24.00;99.90;;;;;;4158601;28;20684;-74
2022/08/10 06:20:11;;;;;;;2.78;1.35;;;24.00;99.90;;;;;;4160991;28;20244;-74
2022/08/10 06:22:15;;;;;;;1.55;1.23;;;23.90;99.90;;;;;;4161464;28;20220;-73
2022/08/10 06:24:22;;;;;;;1.25;1.15;;;23.90;99.90;;;;;;4160512;28;20634;-74
2022/08/10 06:26:24;;;;;;;1.30;1.20;;;23.90;99.90;;;;;;4161369;28;20738;-74
2022/08/10 06:28:32;;;;;;;2.92;1.30;;;23.90;99.90;;;;;;4161431;28;20598;-74
2022/08/10 06:30:35;;;;;;;1.67;1.58;;;24.00;99.90;;;;;;4161078;28;20208;-73
2022/08/10 06:32:37;;;;;;;1.13;1.02;;;23.90;99.90;;;;;;4161011;28;20212;-73
2022/08/10 06:34:45;;;;;;;1.48;1.15;;;23.90;99.90;;;;;;4161598;28;20274;-74
2022/08/10 06:36:48;;;;;;;1.35;1.00;;;23.90;99.90;;;;;;4156358;28;20216;-73
2022/08/10 06:38:51;;;;;;;1.92;1.20;;;23.90;99.90;;;;;;4160851;28;20220;-74
2022/08/10 06:40:57;;;;;;;1.40;1.08;;;23.90;99.90;;;;;;4160778;28;20232;-74
2022/08/10 06:43:02;;;;;;;1.45;1.10;;;23.90;99.90;;;;;;4163850;28;20615;-74
2022/08/10 06:45:10;;;;;;;2.72;1.42;;;23.90;99.90;;;;;;4163915;28;20236;-73
2022/08/10 06:47:14;;;;;;;1.40;1.10;;;23.90;99.90;;;;;;4161498;28;20252;-73
2022/08/10 06:49:21;;;;;;;2.22;1.50;;;23.90;99.90;;;;;;4164027;28;20220;-73
2022/08/10 06:51:27;;;;;;;1.77;1.17;;;23.90;99.90;;;;;;4164556;28;20212;-73
2022/08/10 06:53:33;;;;;;;2.20;1.40;;;23.90;99.90;;;;;;4164265;28;20275;-73
2022/08/10 06:55:37;;;;;;;2.58;1.15;;;23.90;99.90;;;;;;4164367;28;20269;-73
2022/08/10 06:57:41;;;;;;;2.15;1.38;;;23.90;99.90;;;;;;4163900;28;20628;-73
2022/08/10 06:59:47;;;;;;;1.58;1.23;;;23.90;99.90;;;;;;4163670;28;20212;-73
2022/08/10 07:01:57;;;;;;;1.50;1.40;;;23.90;99.90;;;;;;4164182;28;20730;-73
2022/08/10 07:04:02;;;;;;;1.40;1.17;;;23.90;99.90;;;;;;4164185;28;20240;-74
2022/08/10 07:06:07;;;;;;;1.40;1.30;;;24.00;99.90;;;;;;4164022;28;20213;-74
2022/08/10 07:08:10;;;;;;;2.05;1.35;;;24.00;99.90;;;;;;4163802;28;20270;-73
2022/08/10 07:10:16;;;;;;;4.22;1.50;;;23.90;99.90;;;;;;4156087;28;20258;-74
2022/08/10 07:12:21;;;;;;;2.60;1.30;;;23.90;99.90;;;;;;4157662;28;20263;-73
2022/08/10 07:14:25;;;;;;;1.73;1.27;;;24.00;99.90;;;;;;4163640;28;20664;-74
2022/08/10 07:16:29;;;;;;;2.22;1.40;;;24.00;99.90;;;;;;4161287;28;20263;-73
2022/08/10 07:18:34;;;;;;;1.80;1.33;;;23.90;99.90;;;;;;4163750;28;20262;-73
2022/08/10 07:20:37;;;;;;;2.42;1.25;;;24.00;99.90;;;;;;4163578;28;20240;-74
2022/08/10 07:22:41;;;;;;;1.73;1.33;;;23.90;99.90;;;;;;4162780;28;20675;-73
2022/08/10 07:24:44;;;;;;;1.45;1.35;;;24.00;99.90;;;;;;4162815;28;20339;-73
2022/08/10 07:26:50;;;;;;;2.65;1.48;;;24.00;99.90;;;;;;4163654;28;20282;-74
2022/08/10 07:28:53;;;;;;;1.55;1.45;;;23.90;99.90;;;;;;4157125;28;20209;-73
2022/08/10 07:30:56;;;;;;;2.60;1.80;;;24.00;99.90;;;;;;4163189;28;20300;-73
2022/08/10 07:33:00;;;;;;;2.53;1.20;;;24.00;99.90;;;;;;4163291;28;20216;-73
2022/08/10 07:35:05;;;;;;;8.27;1.55;;;23.90;99.90;;;;;;4163332;28;20212;-72
2022/08/10 07:37:10;;;;;;;5.43;4.60;;;23.90;99.90;;;;;;4161281;28;20625;-73
2022/08/10 07:39:13;;;;;;;8.32;4.82;;;23.60;99.90;;;;;;4160674;28;20216;-73
2022/08/10 07:41:19;;;;;;;5.75;4.70;;;23.40;99.90;;;;;;4163548;28;20338;-73
2022/08/10 07:43:24;;;;;;;10.52;5.03;;;23.20;99.90;;;;;;4163422;28;20263;-74
2022/08/10 07:45:28;;;;;;;13.38;5.10;;;23.10;99.90;;;;;;4162790;28;20646;-74
2022/08/10 07:47:34;;;;;;;14.68;5.57;;;23.00;99.90;;;;;;4162265;28;20278;-74
2022/08/10 07:49:39;;;;;;;15.70;6.15;;;22.90;99.90;;;;;;4161597;28;20270;-74
2022/08/10 07:51:43;;;;;;;12.75;5.40;;;22.90;99.90;;;;;;4163283;28;20231;-72
2022/08/10 07:53:50;;;;;;;8.32;5.22;;;22.90;99.90;;;;;;4161370;28;20974;-72
2022/08/10 07:55:54;;;;;;;9.10;4.85;;;22.90;99.90;;;;;;4161367;28;20224;-72
2022/08/10 07:58:00;;;;;;;7.00;5.22;;;22.80;99.90;;;;;;4161079;28;20224;-72
2022/08/10 08:00:07;;;;;;;7.20;4.90;;;22.80;99.90;;;;;;4160024;28;20213;-72
2022/08/10 08:02:23;;;;;;;6.68;4.97;;;22.80;99.90;;;;;;4161481;28;20286;-73
2022/08/10 08:04:26;;;;;;;6.90;4.55;;;22.80;99.90;;;;;;4162713;28;20242;-72
2022/08/10 08:06:31;;;;;;;8.93;4.75;;;22.80;99.90;;;;;;4152632;28;20550;-73
2022/08/10 08:08:37;;;;;;;6.97;4.75;;;22.80;99.90;;;;;;4157579;28;20262;-73
2022/08/10 08:10:41;;;;;;;5.13;4.63;;;22.90;99.90;;;;;;4161076;28;20216;-74
2022/08/10 08:12:45;;;;;;;8.15;5.28;;;23.00;99.90;;;;;;4161758;28;20216;-74
2022/08/10 08:14:49;;;;;;;7.63;5.25;;;23.00;99.90;;;;;;4158456;28;20665;-72
2022/08/10 08:16:54;;;;;;;7.57;4.55;;;23.10;99.90;;;;;;4159705;28;20213;-72
2022/08/10 08:18:58;;;;;;;7.95;4.85;;;23.20;99.90;;;;;;4162451;28;20220;-72
2022/08/10 08:21:02;;;;;;;8.07;4.22;;;23.20;99.90;;;;;;4162242;28;20287;-72
2022/08/10 08:23:05;;;;;;;10.60;4.80;;;23.20;99.90;;;;;;4161441;28;20217;-73
2022/08/10 08:25:09;;;;;;;11.50;5.13;;;23.30;99.90;;;;;;4160840;28;20220;-73
2022/08/10 08:27:15;;;;;;;9.05;4.53;;;23.30;99.90;;;;;;4161669;28;20263;-72
2022/08/10 08:29:19;;;;;;;12.82;4.50;;;23.30;99.90;;;;;;4159141;28;20224;-72
2022/08/10 08:31:22;;;;;;;13.70;4.80;;;23.30;99.90;;;;;;4160770;28;20246;-72
2022/08/10 08:33:26;;;;;;;5.90;4.40;;;23.30;99.90;;;;;;4159670;28;20266;-72
2022/08/10 08:35:29;;;;;;;6.93;4.40;;;23.30;99.90;;;;;;4158788;28;20274;-73
2022/08/10 08:37:33;;;;;;;7.50;4.93;;;23.40;99.90;;;;;;4161827;28;20306;-72
2022/08/10 08:39:36;;;;;;;8.20;4.18;;;23.40;99.90;;;;;;4156409;28;20274;-72
2022/08/10 08:41:58;;;;;;;11.65;4.07;;;23.40;99.90;;;;;;4160126;28;20278;-71
2022/08/10 08:44:07;;;;;;;6.00;3.33;;;23.40;99.90;;;;;;4159200;28;20228;-71
2022/08/10 08:46:30;;;;;;;6.05;3.67;;;23.60;99.90;;;;;;4161779;28;20266;-71
2022/08/10 08:48:49;;;;;;;4.78;3.70;;;23.60;99.90;;;;;;4161705;28;20266;-72
2022/08/10 08:51:02;;;;;;;9.25;3.33;;;23.60;99.90;;;;;;4159863;28;20212;-72
2022/08/10 08:53:21;;;;;;;14.20;4.95;;;23.70;99.90;;;;;;4161257;28;20322;-73
2022/08/10 08:55:34;;;;;;;7.00;3.25;;;23.70;99.90;;;;;;4160667;28;20266;-74
2022/08/10 08:57:45;;;;;;;7.43;3.78;;;23.80;99.90;;;;;;4160942;28;20216;-74
2022/08/10 09:00:00;;;;;;;11.85;4.35;;;23.90;99.90;;;;;;4162105;28;20216;-74
2022/08/10 09:02:17;;;;;;;13.32;3.97;;;24.00;99.90;;;;;;4161618;28;20244;-73
2022/08/10 09:04:42;;;;;;;12.73;3.85;;;23.90;99.90;;;;;;4160591;28;20216;-73
2022/08/10 09:07:07;;;;;;;8.45;3.55;;;23.90;99.90;;;;;;4158696;28;20224;-73
2022/08/10 09:09:48;;;;;;;8.55;3.60;;;24.00;99.90;;;;;;4154741;28;20890;-73
2022/08/10 09:12:02;;;;;;;6.75;3.50;;;24.10;99.90;;;;;;4120409;28;20216;-77
2022/08/10 09:14:16;;;;;;;8.57;3.42;;;24.10;99.90;;;;;;4159006;28;20286;-76
2022/08/10 09:16:26;;;;;;;10.23;3.38;;;24.10;99.90;;;;;;4160223;28;20220;-76
2022/08/10 09:18:38;;;;;;;11.88;3.30;;;24.10;99.90;;;;;;4158999;28;20215;-76
2022/08/10 09:20:49;;;;;;;6.60;3.33;;;24.10;99.90;;;;;;4156444;28;20676;-75
2022/08/10 09:22:57;;;;;;;6.75;3.03;;;24.20;99.90;;;;;;4159516;28;20236;-75
2022/08/10 09:25:09;;;;;;;8.15;3.13;;;24.20;99.90;;;;;;4160812;28;20212;-76
2022/08/10 09:27:23;;;;;;;5.43;3.00;;;24.20;99.90;;;;;;4160970;28;20217;-76
2022/08/10 09:29:28;;;;;;;4.80;2.55;;;24.30;99.90;;;;;;4160002;28;20208;-78
2022/08/10 09:31:41;;;;;;;5.85;2.88;;;24.30;99.90;;;;;;4157825;28;20589;-77
2022/08/10 09:33:52;;;;;;;4.22;2.85;;;24.40;99.90;;;;;;4160368;28;20282;-78
2022/08/10 09:36:04;;;;;;;6.10;3.00;;;24.40;99.90;;;;;;4160876;28;20278;-78
2022/08/10 09:38:18;;;;;;;7.85;3.10;;;24.50;99.90;;;;;;4160236;28;20219;-77
2022/08/10 09:40:27;;;;;;;7.70;2.78;;;24.60;99.90;;;;;;4160811;28;20220;-77
2022/08/10 09:42:50;;;;;;;8.60;3.08;;;24.60;99.90;;;;;;4158147;28;20354;-76
2022/08/10 09:45:01;;;;;;;11.95;3.03;;;24.60;99.90;;;;;;4159354;28;20228;-75
2022/08/10 09:47:24;;;;;;;4.80;2.80;;;24.70;99.90;;;;;;4159893;28;20220;-77
2022/08/10 09:49:49;;;;;;;4.90;2.80;;;24.80;99.90;;;;;;4155187;28;20262;-76
2022/08/10 09:51:59;;;;;;;5.00;2.75;;;24.90;99.90;;;;;;4157524;28;20212;-76
2022/08/10 09:54:15;;;;;;;7.60;3.13;;;24.90;99.90;;;;;;4159871;28;20277;-76
2022/08/10 09:56:28;;;;;;;6.80;3.15;;;24.90;99.90;;;;;;4161624;28;20270;-77
2022/08/10 09:58:40;;;;;;;4.82;2.83;;;24.80;99.90;;;;;;4161615;28;20216;-78
2022/08/10 10:00:51;;;;;;;5.80;3.20;;;24.80;99.90;;;;;;4157724;28;20275;-77
2022/08/10 10:03:15;;;;;;;4.55;2.88;;;24.80;99.90;;;;;;4153432;28;20285;-77
2022/08/10 10:05:27;;;;;;;4.75;2.88;;;24.90;99.90;;;;;;4159497;28;20216;-77
2022/08/10 10:07:30;;;;;;;7.57;3.10;;;25.00;99.90;;;;;;4158953;28;20224;-76
2022/08/10 10:09:38;;;;;;;6.03;2.63;;;24.90;99.90;;;;;;4161170;28;20216;-76
2022/08/10 10:11:49;;;;;;;5.05;2.70;;;25.00;99.90;;;;;;4159986;28;20785;-76
2022/08/10 10:14:05;;;;;;;4.22;3.10;;;25.00;99.90;;;;;;4160090;28;20208;-76
2022/08/10 10:16:23;;;;;;;4.32;2.63;;;25.20;99.90;;;;;;4160257;28;20216;-76
2022/08/10 10:18:41;;;;;;;7.78;2.70;;;25.30;99.90;;;;;;4157867;28;20247;-77
2022/08/10 10:20:52;;;;;;;6.82;2.80;;;25.40;99.90;;;;;;4157317;28;20204;-76
2022/08/10 10:23:05;;;;;;;6.20;2.55;;;25.40;99.90;;;;;;4156047;28;20236;-77
2022/08/10 10:25:17;;;;;;;3.13;2.67;;;25.40;99.90;;;;;;4160285;28;20219;-78
2022/08/10 10:27:30;;;;;;;7.30;2.72;;;25.40;99.90;;;;;;4159023;28;20648;-78
2022/08/10 10:29:42;;;;;;;4.07;2.60;;;25.30;99.90;;;;;;4160171;28;20266;-78
2022/08/10 10:31:58;;;;;;;9.25;3.17;;;25.40;99.90;;;;;;4158374;28;20216;-78
2022/08/10 10:34:09;;;;;;;6.82;3.30;;;25.50;99.90;;;;;;4157914;28;20220;-77
2022/08/10 10:36:15;;;;;;;6.32;2.83;;;25.70;99.90;;;;;;4156012;28;20212;-76
2022/08/10 10:38:21;;;;;;;7.28;2.95;;;25.50;99.90;;;;;;4156551;28;20286;-78
2022/08/10 10:40:25;;;;;;;6.40;2.80;;;25.50;99.90;;;;;;4155570;28;20246;-77
2022/08/10 10:42:49;;;;;;;8.00;2.60;;;25.50;99.90;;;;;;4158398;28;20236;-77
2022/08/10 10:45:03;;;;;;;4.85;2.75;;;25.60;99.90;;;;;;4157883;28;20232;-73
2022/08/10 10:47:24;;;;;;;4.50;3.13;;;25.70;99.90;;;;;;4160582;28;20216;-73
2022/08/10 10:49:38;;;;;;;5.07;2.55;;;25.70;99.90;;;;;;4159768;28;20212;-78
2022/08/10 10:51:48;;;;;;;8.07;2.75;;;25.70;99.90;;;;;;4159475;28;20259;-76
2022/08/10 10:54:03;;;;;;;7.75;3.08;;;25.70;99.90;;;;;;4160327;28;20286;-76
2022/08/10 10:56:16;;;;;;;5.75;2.60;;;25.70;99.90;;;;;;4155577;28;20221;-77
2022/08/10 10:58:24;;;;;;;4.00;2.50;;;25.80;99.90;;;;;;4159454;28;20678;-76
2022/08/10 11:00:34;;;;;;;4.85;2.78;;;25.90;99.90;;;;;;4159577;28;20656;-77
2022/08/10 11:02:49;;;;;;;4.55;2.55;;;26.00;99.90;;;;;;4159223;28;20236;-75
2022/08/10 11:05:00;;;;;;;4.50;2.92;;;26.00;99.90;;;;;;4158040;28;20216;-75